createdAt,value
2019-01-19T00:01:05.216Z,98.52
2019-01-19T00:06:17.666Z,97.83
2019-01-19T00:11:32.905Z,97.69
2019-01-19T00:16:54.299Z,100.00
2019-01-19T00:22:06.767Z,98.37
2019-01-19T00:27:15.941Z,100.00
2019-01-19T00:32:34.381Z,99.29
2019-01-19T00:37:43.697Z,99.11
2019-01-19T00:42:50.185Z,100.00
2019-01-19T00:47:59.535Z,100.00
2019-01-19T00:53:08.613Z,100.00
2019-01-19T00:58:17.752Z,99.12
2019-01-19T01:03:32.751Z,100.00
2019-01-19T01:08:51.217Z,100.00
2019-01-19T01:13:57.629Z,100.00
2019-01-19T01:19:10.072Z,100.00
2019-01-19T01:24:19.313Z,98.40
2019-01-19T01:29:40.536Z,100.00
2019-01-19T01:34:49.745Z,100.00
2019-01-19T01:39:59.171Z,100.00
2019-01-19T01:45:11.244Z,98.57
2019-01-19T01:50:29.561Z,99.37
2019-01-19T01:55:35.642Z,97.16
2019-01-19T02:00:51.105Z,99.28
2019-01-19T02:06:00.135Z,94.82
2019-01-19T02:11:09.140Z,100.00
2019-01-19T02:16:36.048Z,96.95
2019-01-19T02:22:14.302Z,98.49
2019-01-19T02:27:32.707Z,99.45
2019-01-19T02:33:06.317Z,100.00
2019-01-19T02:38:15.451Z,99.25
2019-01-19T02:43:21.966Z,98.54
2019-01-19T02:48:34.250Z,98.38
2019-01-19T02:53:49.661Z,98.53
2019-01-19T02:59:14.130Z,96.73
2019-01-19T03:04:23.025Z,95.47
2019-01-19T03:09:35.417Z,98.05
2019-01-19T03:14:53.821Z,96.60
2019-01-19T03:20:12.182Z,97.97
2019-01-19T03:25:36.516Z,97.11
2019-01-19T03:30:57.873Z,97.99
2019-01-19T03:36:16.212Z,94.87
2019-01-19T03:41:31.810Z,99.50
2019-01-19T03:46:47.030Z,97.99
2019-01-19T03:51:59.260Z,98.74
2019-01-19T03:57:17.540Z,95.98
2019-01-19T04:02:43.098Z,95.36
2019-01-19T04:07:49.571Z,96.69
2019-01-19T04:13:12.401Z,95.95
2019-01-19T04:18:24.480Z,93.57
2019-01-19T04:23:27.912Z,95.67
2019-01-19T04:28:31.506Z,93.23
2019-01-19T04:33:34.960Z,96.03
2019-01-19T04:38:39.758Z,94.52
2019-01-19T04:43:43.213Z,95.94
2019-01-19T04:48:47.030Z,93.56
2019-01-19T04:53:50.461Z,96.73
2019-01-19T04:58:53.907Z,94.23
2019-01-19T05:03:57.322Z,92.99
2019-01-19T05:09:00.890Z,96.06
2019-01-19T05:14:05.580Z,98.35
2019-01-19T05:19:09.093Z,97.46
2019-01-19T05:24:12.540Z,97.44
2019-01-19T05:29:15.962Z,93.36
2019-01-19T05:34:19.388Z,95.23
2019-01-19T05:39:22.829Z,95.25
2019-01-19T05:44:26.292Z,96.95
2019-01-19T05:49:29.682Z,98.32
2019-01-19T05:54:33.102Z,98.60
2019-01-19T05:59:36.553Z,98.94
2019-01-19T06:04:39.969Z,98.07
2019-01-19T06:09:43.398Z,98.58
2019-01-19T06:14:46.841Z,98.22
2019-01-19T06:19:50.641Z,97.33
2019-01-19T06:24:54.082Z,97.99
2019-01-19T06:29:57.513Z,96.86
2019-01-19T06:35:00.951Z,97.41
2019-01-19T06:40:07.670Z,92.82
2019-01-19T06:45:14.285Z,95.18
2019-01-19T06:50:18.068Z,94.78
2019-01-19T06:55:27.470Z,94.86
2019-01-19T07:00:30.875Z,92.89
2019-01-19T07:05:34.315Z,94.54
2019-01-19T07:10:37.757Z,95.04
2019-01-19T07:15:41.199Z,95.45
2019-01-19T07:20:44.629Z,93.64
2019-01-19T07:25:48.060Z,94.50
2019-01-19T07:30:51.520Z,93.97
2019-01-19T07:35:54.958Z,94.11
2019-01-19T07:40:58.392Z,94.16
2019-01-19T07:46:02.014Z,93.38
2019-01-19T07:51:05.507Z,93.95
2019-01-19T07:56:08.998Z,94.42
2019-01-19T08:01:12.417Z,95.10
2019-01-19T08:06:15.842Z,95.13
2019-01-19T08:11:19.292Z,93.63
2019-01-19T08:16:22.789Z,92.96
2019-01-19T08:21:26.278Z,95.77
2019-01-19T08:26:29.706Z,95.12
2019-01-19T08:31:33.143Z,94.00
2019-01-19T08:36:36.578Z,94.16
2019-01-19T08:41:39.994Z,94.69
2019-01-19T08:46:43.414Z,94.30
2019-01-19T08:51:46.961Z,94.31
2019-01-19T08:56:50.374Z,94.58
2019-01-19T09:01:53.818Z,94.63
2019-01-19T09:06:57.264Z,94.29
2019-01-19T09:12:00.834Z,95.00
2019-01-19T09:17:04.414Z,95.24
2019-01-19T09:22:07.836Z,93.57
2019-01-19T09:27:11.263Z,94.45
2019-01-19T09:32:14.769Z,94.21
2019-01-19T09:37:18.180Z,91.55
2019-01-19T09:42:21.634Z,92.22
2019-01-19T09:47:25.038Z,91.73
2019-01-19T09:52:28.523Z,88.24
2019-01-19T09:57:32.010Z,86.32
2019-01-19T10:02:35.434Z,87.22
2019-01-19T10:07:38.862Z,85.03
2019-01-19T10:12:42.416Z,84.18
2019-01-19T10:17:46.104Z,79.55
2019-01-19T10:22:49.591Z,77.46
2019-01-19T10:27:53.010Z,77.48
2019-01-19T10:32:56.547Z,74.36
2019-01-19T10:37:59.972Z,74.15
2019-01-19T10:43:03.686Z,71.65
2019-01-19T10:48:07.202Z,71.86
2019-01-19T10:53:10.757Z,70.45
2019-01-19T10:58:14.164Z,68.59
2019-01-19T11:03:17.726Z,71.67
2019-01-19T11:08:21.150Z,69.54
2019-01-19T11:13:24.603Z,72.87
2019-01-19T11:18:28.065Z,69.57
2019-01-19T11:23:31.567Z,68.78
2019-01-19T11:28:35.077Z,67.29
2019-01-19T11:33:38.531Z,67.27
2019-01-19T11:38:41.997Z,67.96
2019-01-19T11:43:45.445Z,68.32
2019-01-19T11:48:48.894Z,67.18
2019-01-19T11:53:52.408Z,69.39
2019-01-19T11:58:56.724Z,69.04
2019-01-19T12:04:00.288Z,67.80
2019-01-19T12:09:05.933Z,66.68
2019-01-19T12:14:09.425Z,65.85
2019-01-19T12:19:12.940Z,64.36
2019-01-19T12:24:16.385Z,66.27
2019-01-19T12:29:19.809Z,66.31
2019-01-19T12:34:23.301Z,63.37
2019-01-19T12:39:26.730Z,64.14
2019-01-19T12:44:30.227Z,64.30
2019-01-19T12:49:33.720Z,66.73
2019-01-19T12:54:37.153Z,68.08
2019-01-19T12:59:40.586Z,66.96
2019-01-19T13:04:43.997Z,68.48
2019-01-19T13:09:47.439Z,68.78
2019-01-19T13:14:53.895Z,68.48
2019-01-19T13:20:00.380Z,66.75
2019-01-19T13:25:09.836Z,66.79
2019-01-19T13:30:28.381Z,66.65
2019-01-19T13:35:52.923Z,65.98
2019-01-19T13:41:32.138Z,64.70
2019-01-19T13:47:04.018Z,65.38
2019-01-19T13:52:19.138Z,67.35
2019-01-19T13:57:43.487Z,65.11
2019-01-19T14:02:55.758Z,67.00
2019-01-19T14:08:05.058Z,65.71
2019-01-19T14:13:11.528Z,65.40
2019-01-19T14:18:24.023Z,65.84
2019-01-19T14:23:33.310Z,66.21
2019-01-19T14:28:54.189Z,64.81
2019-01-19T14:34:00.685Z,64.28
2019-01-19T14:39:21.848Z,65.31
2019-01-19T14:44:43.440Z,65.04
2019-01-19T14:50:02.028Z,66.06
2019-01-19T14:55:26.484Z,66.00
2019-01-19T15:00:32.977Z,67.29
2019-01-19T15:05:54.311Z,66.51
2019-01-19T15:11:00.905Z,66.10
2019-01-19T15:16:13.484Z,66.92
2019-01-19T15:21:45.086Z,66.60
2019-01-19T15:27:06.335Z,67.51
2019-01-19T15:32:12.812Z,68.72
2019-01-19T15:37:19.837Z,69.66
2019-01-19T15:42:41.251Z,69.50
2019-01-19T15:47:59.314Z,69.30
2019-01-19T15:53:11.207Z,69.56
2019-01-19T15:58:26.307Z,70.53
2019-01-19T16:03:59.988Z,70.62
2019-01-19T16:09:23.104Z,69.59
2019-01-19T16:14:47.661Z,69.29
2019-01-19T16:20:09.130Z,67.66
2019-01-19T16:25:27.443Z,68.08
2019-01-19T16:30:33.928Z,68.38
2019-01-19T16:35:46.108Z,69.21
2019-01-19T16:41:04.422Z,70.59
2019-01-19T16:46:16.505Z,70.48
2019-01-19T16:51:40.245Z,71.13
2019-01-19T16:56:49.443Z,71.27
2019-01-19T17:02:01.700Z,72.57
2019-01-19T17:07:30.352Z,72.65
2019-01-19T17:12:42.519Z,72.95
2019-01-19T17:18:09.501Z,72.81
2019-01-19T17:23:38.340Z,73.64
2019-01-19T17:28:47.808Z,73.96
2019-01-19T17:34:02.921Z,73.42
2019-01-19T17:39:18.216Z,73.12
2019-01-19T17:44:36.494Z,74.37
2019-01-19T17:49:45.904Z,75.84
2019-01-19T17:55:16.385Z,73.75
2019-01-19T18:00:48.368Z,74.53
2019-01-19T18:05:54.850Z,77.79
2019-01-19T18:11:24.690Z,78.02
2019-01-19T18:17:02.421Z,75.58
2019-01-19T18:22:32.490Z,76.60
2019-01-19T18:27:44.499Z,77.97
2019-01-19T18:32:56.174Z,78.51
2019-01-19T18:38:29.078Z,80.06
2019-01-19T18:44:08.297Z,81.86
2019-01-19T18:49:23.568Z,81.79
2019-01-19T18:54:49.304Z,78.56
2019-01-19T19:00:21.036Z,75.88
2019-01-19T19:05:33.035Z,77.56
2019-01-19T19:10:45.189Z,79.26
2019-01-19T19:16:08.180Z,82.05
2019-01-19T19:21:26.312Z,81.39
2019-01-19T19:26:58.305Z,82.67
2019-01-19T19:32:28.633Z,83.64
2019-01-19T19:37:41.983Z,83.53
2019-01-19T19:42:57.356Z,81.21
2019-01-19T19:48:21.877Z,80.90
2019-01-19T19:53:25.396Z,82.82
2019-01-19T19:58:28.828Z,81.21
2019-01-19T20:03:32.252Z,81.89
2019-01-19T20:08:35.764Z,80.81
2019-01-19T20:13:39.191Z,82.70
2019-01-19T20:18:42.722Z,81.61
2019-01-19T20:23:46.223Z,82.21
2019-01-19T20:28:49.645Z,82.31
2019-01-19T20:33:53.135Z,84.17
2019-01-19T20:38:56.580Z,82.23
2019-01-19T20:44:00.081Z,80.31
2019-01-19T20:49:03.605Z,82.74
2019-01-19T20:54:07.055Z,82.56
2019-01-19T20:59:10.497Z,82.77
2019-01-19T21:04:15.856Z,83.71
2019-01-19T21:09:19.080Z,83.75
2019-01-19T21:14:23.521Z,84.26
2019-01-19T21:19:27.000Z,81.09
2019-01-19T21:24:30.444Z,82.07
2019-01-19T21:29:33.954Z,84.63
2019-01-19T21:34:37.387Z,84.25
2019-01-19T21:39:40.906Z,83.99
2019-01-19T21:44:44.388Z,83.32
2019-01-19T21:49:47.817Z,80.77
2019-01-19T21:54:51.232Z,81.29
2019-01-19T21:59:54.702Z,84.19
2019-01-19T22:04:58.134Z,84.38
2019-01-19T22:10:01.610Z,81.57
2019-01-19T22:15:08.097Z,86.48
2019-01-19T22:20:13.775Z,85.80
2019-01-19T22:25:17.281Z,84.34
2019-01-19T22:30:22.628Z,85.51
2019-01-19T22:35:27.595Z,85.08
2019-01-19T22:40:31.035Z,85.29
2019-01-19T22:45:34.464Z,85.05
2019-01-19T22:50:37.890Z,81.13
2019-01-19T22:55:41.322Z,86.38
2019-01-19T23:01:00.242Z,87.02
2019-01-19T23:06:03.743Z,83.78
2019-01-19T23:11:07.172Z,84.22
2019-01-19T23:16:10.620Z,86.36
2019-01-19T23:21:14.114Z,85.53
2019-01-19T23:26:18.009Z,86.25
2019-01-19T23:31:21.509Z,85.93
2019-01-19T23:36:24.975Z,85.49
2019-01-19T23:41:28.429Z,84.70
2019-01-19T23:46:31.855Z,85.29
2019-01-19T23:51:35.299Z,86.06
2019-01-19T23:56:38.738Z,85.87
